createdAt,value
2023-11-09T00:00:12.863Z,0.45
2023-11-09T00:01:29.954Z,0.57
2023-11-09T00:02:46.841Z,0.06
2023-11-09T00:04:04.140Z,0
2023-11-09T00:05:20.926Z,0.29
2023-11-09T00:06:37.998Z,0.26
2023-11-09T00:07:54.830Z,0.15
2023-11-09T00:09:11.867Z,0.25
2023-11-09T00:10:29.021Z,0.21
2023-11-09T00:11:45.958Z,0.04
2023-11-09T00:13:03.048Z,0.06
2023-11-09T00:14:19.971Z,0
2023-11-09T00:15:36.868Z,0
2023-11-09T00:16:54.400Z,0
2023-11-09T00:18:10.968Z,0
2023-11-09T00:19:27.996Z,0
2023-11-09T00:20:44.987Z,0.24
2023-11-09T00:22:01.988Z,0.16
2023-11-09T00:23:19.155Z,0.22
2023-11-09T00:24:35.921Z,0
2023-11-09T00:25:53.199Z,0
2023-11-09T00:27:10.070Z,0
2023-11-09T00:28:27.449Z,0.21
2023-11-09T00:29:44.053Z,0
2023-11-09T00:31:00.922Z,0.13
2023-11-09T00:32:18.085Z,0.42
2023-11-09T00:33:34.974Z,0.48
2023-11-09T00:34:52.001Z,0.24
2023-11-09T00:36:08.933Z,0
2023-11-09T00:37:26.173Z,0.18
2023-11-09T00:38:42.965Z,0.19
2023-11-09T00:40:00.012Z,0
2023-11-09T00:41:16.925Z,0.22
2023-11-09T00:42:33.939Z,0.2
2023-11-09T00:43:51.320Z,0.31
2023-11-09T00:45:07.943Z,0.35
2023-11-09T00:46:25.130Z,0.2
2023-11-09T00:47:41.924Z,0.19
2023-11-09T00:48:59.297Z,0.28
2023-11-09T00:50:16.004Z,0.12
2023-11-09T00:51:32.913Z,0.22
2023-11-09T00:52:50.068Z,0.19
2023-11-09T00:54:06.919Z,0.31
2023-11-09T00:55:24.016Z,0.23
2023-11-09T00:56:40.974Z,0.37
2023-11-09T00:57:58.113Z,0.45
2023-11-09T00:59:15.130Z,0.47
2023-11-09T01:00:32.047Z,0.37
2023-11-09T01:01:49.074Z,0
2023-11-09T01:03:06.241Z,0.25
2023-11-09T01:04:23.055Z,0.06
2023-11-09T01:05:40.711Z,0.21
2023-11-09T01:06:58.246Z,0.27
2023-11-09T01:08:15.019Z,0.17
2023-11-09T01:09:32.029Z,0.14
2023-11-09T01:10:48.994Z,0.32
2023-11-09T01:12:06.091Z,0.19
2023-11-09T01:13:23.013Z,0.2
2023-11-09T01:14:40.124Z,0
2023-11-09T01:15:56.993Z,0
2023-11-09T01:17:13.973Z,0
2023-11-09T01:18:31.121Z,0
2023-11-09T01:19:48.126Z,0
2023-11-09T01:21:05.134Z,0
2023-11-09T01:22:22.040Z,0
2023-11-09T01:23:39.088Z,0
2023-11-09T01:24:56.099Z,0
2023-11-09T01:26:12.940Z,0
2023-11-09T01:27:30.049Z,0
2023-11-09T01:28:46.996Z,0.19
2023-11-09T01:30:04.233Z,0.11
2023-11-09T01:31:20.974Z,0
2023-11-09T01:32:38.759Z,0.22
2023-11-09T01:34:02.070Z,0.13
2023-11-09T01:35:13.013Z,0
2023-11-09T01:36:30.121Z,0.28
2023-11-09T01:37:46.961Z,0
2023-11-09T01:39:04.103Z,0
2023-11-09T01:40:21.108Z,0.26
2023-11-09T01:41:38.168Z,0
2023-11-09T01:42:55.031Z,0
2023-11-09T01:44:12.147Z,0
2023-11-09T01:45:29.178Z,0
2023-11-09T01:46:46.046Z,0
2023-11-09T01:48:03.107Z,0
2023-11-09T01:49:20.092Z,0
2023-11-09T01:50:37.032Z,0
2023-11-09T01:51:54.082Z,0
2023-11-09T01:53:11.177Z,0
2023-11-09T01:54:28.131Z,0
2023-11-09T01:55:45.007Z,0
2023-11-09T01:57:01.996Z,0
2023-11-09T01:58:19.079Z,0
2023-11-09T01:59:36.075Z,0
2023-11-09T02:00:53.158Z,0
2023-11-09T02:02:10.048Z,0
2023-11-09T02:03:27.145Z,0
2023-11-09T02:04:44.202Z,0
2023-11-09T02:06:01.068Z,0
2023-11-09T02:07:18.193Z,0
2023-11-09T02:08:35.074Z,0
2023-11-09T02:09:52.103Z,0
2023-11-09T02:11:10.472Z,0
2023-11-09T02:12:26.042Z,0
2023-11-09T02:13:43.202Z,0
2023-11-09T02:15:00.187Z,0
2023-11-09T02:16:17.172Z,0
2023-11-09T02:17:34.898Z,0
2023-11-09T02:18:52.315Z,0
2023-11-09T02:20:09.035Z,0
2023-11-09T02:21:26.140Z,0
2023-11-09T02:22:43.033Z,0
2023-11-09T02:24:00.262Z,0
2023-11-09T02:25:17.232Z,0
2023-11-09T02:26:34.087Z,0
2023-11-09T02:27:51.159Z,0
2023-11-09T02:29:08.110Z,0
2023-11-09T02:30:25.130Z,0
2023-11-09T02:31:42.629Z,0
2023-11-09T02:32:59.163Z,0
2023-11-09T02:34:16.317Z,0
2023-11-09T02:35:33.257Z,0
2023-11-09T02:36:50.205Z,0
2023-11-09T02:38:07.057Z,0
2023-11-09T02:39:24.143Z,0
2023-11-09T02:40:41.200Z,0
2023-11-09T02:41:58.102Z,0
2023-11-09T02:43:15.971Z,0
2023-11-09T02:44:33.192Z,0
2023-11-09T02:45:50.263Z,0
2023-11-09T02:47:07.099Z,0.32
2023-11-09T02:48:24.209Z,0.29
2023-11-09T02:49:41.116Z,0.29
2023-11-09T02:50:58.248Z,0.2
2023-11-09T02:52:15.162Z,0.41
2023-11-09T02:53:32.247Z,0.12
2023-11-09T02:54:49.064Z,0.22
2023-11-09T02:56:06.229Z,0
2023-11-09T02:57:23.073Z,0
2023-11-09T02:58:40.287Z,0
2023-11-09T02:59:57.138Z,0
2023-11-09T03:01:14.438Z,0
2023-11-09T03:02:31.185Z,0
2023-11-09T03:03:48.174Z,0
2023-11-09T03:05:05.288Z,0
2023-11-09T03:06:22.277Z,0
2023-11-09T03:07:39.235Z,0
2023-11-09T03:08:56.173Z,0
2023-11-09T03:10:13.248Z,0
2023-11-09T03:11:30.204Z,0
2023-11-09T03:12:47.142Z,0
2023-11-09T03:14:04.306Z,0
2023-11-09T03:15:21.356Z,0
2023-11-09T03:16:38.184Z,0
2023-11-09T03:17:55.414Z,0
2023-11-09T03:19:12.216Z,0.42
2023-11-09T03:20:29.524Z,0.21
2023-11-09T03:21:46.103Z,0
2023-11-09T03:23:03.205Z,0.44
2023-11-09T03:24:20.233Z,0.4
2023-11-09T03:25:37.148Z,0.28
2023-11-09T03:26:54.136Z,0
2023-11-09T03:28:11.445Z,0
2023-11-09T03:29:28.156Z,0
2023-11-09T03:30:45.433Z,0.35
2023-11-09T03:32:02.210Z,0.44
2023-11-09T03:33:19.230Z,0.07
2023-11-09T03:34:36.276Z,0.28
2023-11-09T03:35:53.483Z,0.32
2023-11-09T03:37:11.007Z,0
2023-11-09T03:38:28.176Z,0
2023-11-09T03:39:45.210Z,0
2023-11-09T03:41:02.242Z,0
2023-11-09T03:42:19.453Z,0
2023-11-09T03:43:36.213Z,0
2023-11-09T03:44:53.267Z,0
2023-11-09T03:46:10.168Z,0
2023-11-09T03:47:27.164Z,0.26
2023-11-09T03:48:44.405Z,0.45
2023-11-09T03:50:01.220Z,0.36
2023-11-09T03:51:18.251Z,0.31
2023-11-09T03:52:35.216Z,0.13
2023-11-09T03:53:52.350Z,0.1
2023-11-09T03:55:09.330Z,0.16
2023-11-09T03:56:26.178Z,0
2023-11-09T03:57:43.304Z,0.15
2023-11-09T03:59:00.195Z,0
2023-11-09T04:00:17.626Z,0
2023-11-09T04:01:34.252Z,0
2023-11-09T04:02:51.300Z,0
2023-11-09T04:04:08.293Z,0.17
2023-11-09T04:05:25.311Z,0.36
2023-11-09T04:06:42.165Z,0.3
2023-11-09T04:07:59.207Z,0.11
2023-11-09T04:09:16.195Z,0
2023-11-09T04:10:33.365Z,0.22
2023-11-09T04:11:50.263Z,0.29
2023-11-09T04:13:07.259Z,0.31
2023-11-09T04:14:24.179Z,0.12
2023-11-09T04:15:41.219Z,0.26
2023-11-09T04:16:58.304Z,0.28
2023-11-09T04:18:15.203Z,0.42
2023-11-09T04:19:32.327Z,0.31
2023-11-09T04:20:49.239Z,0.39
2023-11-09T04:22:06.333Z,0.39
2023-11-09T04:23:23.207Z,0
2023-11-09T04:24:40.185Z,0
2023-11-09T04:25:57.308Z,0
2023-11-09T04:27:14.285Z,0
2023-11-09T04:28:31.334Z,0.08
2023-11-09T04:29:48.209Z,0
2023-11-09T04:31:05.275Z,0
2023-11-09T04:32:22.295Z,0
2023-11-09T04:33:39.261Z,0
2023-11-09T04:34:56.475Z,0.17
2023-11-09T04:36:13.258Z,0
2023-11-09T04:37:30.306Z,0
2023-11-09T04:38:47.298Z,0
2023-11-09T04:40:04.357Z,0
2023-11-09T04:41:21.328Z,0
2023-11-09T04:42:38.288Z,0
2023-11-09T04:43:55.356Z,0
2023-11-09T04:45:12.910Z,0.21
2023-11-09T04:46:30.453Z,0
2023-11-09T04:47:47.412Z,0
2023-11-09T04:49:04.475Z,0.2
2023-11-09T04:50:21.374Z,0.32
2023-11-09T04:51:38.446Z,0.26
2023-11-09T04:52:55.269Z,0
2023-11-09T04:54:12.244Z,0.2
2023-11-09T04:55:29.364Z,0.35
2023-11-09T04:56:47.352Z,0.29
2023-11-09T04:58:04.588Z,0.14
2023-11-09T04:59:21.318Z,0.31
2023-11-09T05:00:38.271Z,0.18
2023-11-09T05:01:55.349Z,0.11
2023-11-09T05:03:12.348Z,0.08
2023-11-09T05:04:29.613Z,0
2023-11-09T05:05:46.401Z,0
2023-11-09T05:07:03.330Z,0
2023-11-09T05:08:20.334Z,0.21
2023-11-09T05:09:37.255Z,0.09
2023-11-09T05:10:54.417Z,0
2023-11-09T05:12:11.677Z,0
2023-11-09T05:13:28.357Z,0
2023-11-09T05:14:45.307Z,0
2023-11-09T05:16:02.361Z,0
2023-11-09T05:17:19.339Z,0
2023-11-09T05:18:36.349Z,0.23
2023-11-09T05:19:53.367Z,0.24
2023-11-09T05:21:10.361Z,0.12
2023-11-09T05:22:27.447Z,0.18
2023-11-09T05:23:44.272Z,0.22
2023-11-09T05:25:01.661Z,0.23
2023-11-09T05:26:18.374Z,0.32
2023-11-09T05:27:35.671Z,0.21
2023-11-09T05:28:53.325Z,0.2
2023-11-09T05:30:10.435Z,0.32
2023-11-09T05:31:27.458Z,0.35
2023-11-09T05:32:45.833Z,0.64
2023-11-09T05:34:03.393Z,0.47
2023-11-09T05:35:20.406Z,0
2023-11-09T05:36:37.286Z,0.3
2023-11-09T05:37:54.341Z,0.35
2023-11-09T05:39:11.316Z,0.55
2023-11-09T05:40:28.480Z,0.24
2023-11-09T05:41:45.312Z,0.39
2023-11-09T05:43:02.437Z,0.31
2023-11-09T05:44:19.434Z,0.27
2023-11-09T05:45:36.414Z,0.2
2023-11-09T05:46:53.325Z,0
2023-11-09T05:48:10.706Z,0.25
2023-11-09T05:49:27.394Z,0.21
2023-11-09T05:50:44.506Z,0
2023-11-09T05:52:02.537Z,0.14
2023-11-09T05:53:19.393Z,0.15
2023-11-09T05:54:36.419Z,0.5
2023-11-09T05:55:53.401Z,0.42
2023-11-09T05:57:10.391Z,0.57
2023-11-09T05:58:27.590Z,0.51
2023-11-09T05:59:45.032Z,0.52
2023-11-09T06:01:02.389Z,0.45
2023-11-09T06:02:19.726Z,0.57
2023-11-09T06:03:36.431Z,0.55
2023-11-09T06:04:53.573Z,0.36
2023-11-09T06:06:10.425Z,0.63
2023-11-09T06:07:27.424Z,0.59
2023-11-09T06:08:45.700Z,0.52
2023-11-09T06:10:02.488Z,0.8
2023-11-09T06:11:19.406Z,0.77
2023-11-09T06:12:36.528Z,0.66
2023-11-09T06:13:53.519Z,0.81
2023-11-09T06:15:10.512Z,0.58
2023-11-09T06:16:27.417Z,0.62
2023-11-09T06:17:44.656Z,0.46
2023-11-09T06:19:01.477Z,0.46
2023-11-09T06:20:18.796Z,0.5
2023-11-09T06:21:35.352Z,0.72
2023-11-09T06:22:52.521Z,0.64
2023-11-09T06:24:09.472Z,0.53
2023-11-09T06:25:26.651Z,0.82
2023-11-09T06:26:43.546Z,0.32
2023-11-09T06:28:00.507Z,0.77
2023-11-09T06:29:17.444Z,0.58
2023-11-09T06:30:34.517Z,0.7
2023-11-09T06:31:51.433Z,0.73
2023-11-09T06:33:08.486Z,0.52
2023-11-09T06:34:25.862Z,0.44
2023-11-09T06:35:42.460Z,0.42
2023-11-09T06:36:59.401Z,0.54
2023-11-09T06:38:16.455Z,0.28
2023-11-09T06:39:33.559Z,0.31
2023-11-09T06:40:50.476Z,0.49
2023-11-09T06:42:07.362Z,0.77
2023-11-09T06:43:24.469Z,0.65
2023-11-09T06:44:41.427Z,0.38
2023-11-09T06:45:58.437Z,0.62
2023-11-09T06:47:15.405Z,0.77
2023-11-09T06:48:32.707Z,0.48
2023-11-09T06:49:50.415Z,1.04
2023-11-09T06:51:07.902Z,0.86
2023-11-09T06:52:24.534Z,0.91
2023-11-09T06:53:41.613Z,0.73
2023-11-09T06:54:58.452Z,0.78
2023-11-09T06:56:15.520Z,0.72
2023-11-09T06:57:32.531Z,0.5
2023-11-09T06:58:49.581Z,0.91
2023-11-09T07:00:06.455Z,1.07
2023-11-09T07:01:23.515Z,1.12
2023-11-09T07:02:40.530Z,1.2
2023-11-09T07:03:57.644Z,1.31
2023-11-09T07:05:16.464Z,1.15
2023-11-09T07:06:33.722Z,0.73
2023-11-09T07:07:50.464Z,1.09
2023-11-09T07:09:07.437Z,1.47
2023-11-09T07:10:24.588Z,1.38
2023-11-09T07:11:41.447Z,1.06
2023-11-09T07:12:58.675Z,0.99
2023-11-09T07:14:15.723Z,1.02
2023-11-09T07:15:32.525Z,1.56
2023-11-09T07:16:49.509Z,1.45
2023-11-09T07:18:06.704Z,1.3
2023-11-09T07:19:23.476Z,0.83
2023-11-09T07:20:40.548Z,1.08
2023-11-09T07:21:57.471Z,1.12
2023-11-09T07:23:14.516Z,1.49
2023-11-09T07:24:31.642Z,1.7
2023-11-09T07:25:48.560Z,0.97
2023-11-09T07:27:05.478Z,1.2
2023-11-09T07:28:23.173Z,1.56
2023-11-09T07:29:40.558Z,2.11
2023-11-09T07:30:57.478Z,1.47
2023-11-09T07:32:14.567Z,1.72
2023-11-09T07:33:31.758Z,1.18
2023-11-09T07:34:48.561Z,1.37
2023-11-09T07:36:05.497Z,1.21
2023-11-09T07:37:22.787Z,1.22
2023-11-09T07:38:39.840Z,1.35
2023-11-09T07:39:56.502Z,0.98
2023-11-09T07:41:13.644Z,1.42
2023-11-09T07:42:30.557Z,1.43
2023-11-09T07:43:47.736Z,1.1
2023-11-09T07:45:04.637Z,1.12
2023-11-09T07:46:21.614Z,1.26
2023-11-09T07:47:38.636Z,0.93
2023-11-09T07:48:55.582Z,1.07
2023-11-09T07:50:12.941Z,1.28
2023-11-09T07:51:29.551Z,1.22
2023-11-09T07:52:46.728Z,0.98
2023-11-09T07:54:03.694Z,1.02
2023-11-09T07:55:20.741Z,1.38
2023-11-09T07:56:37.694Z,0.89
2023-11-09T07:57:54.531Z,0.88
2023-11-09T07:59:11.595Z,1.26
2023-11-09T08:00:28.589Z,1.38
2023-11-09T08:01:45.678Z,0.96
2023-11-09T08:03:02.623Z,1.34
2023-11-09T08:04:19.600Z,1.9
2023-11-09T08:05:36.642Z,2.15
2023-11-09T08:06:53.533Z,1.16
2023-11-09T08:08:10.539Z,1.49
2023-11-09T08:09:27.681Z,1.51
2023-11-09T08:10:45.099Z,1.59
2023-11-09T08:12:01.579Z,1.65
2023-11-09T08:13:18.588Z,1.8
2023-11-09T08:14:35.624Z,1.54
2023-11-09T08:15:52.671Z,2.08
2023-11-09T08:17:11.559Z,1.55
2023-11-09T08:18:27.051Z,1.61
2023-11-09T08:19:43.749Z,1.69
2023-11-09T08:21:00.655Z,0.9
2023-11-09T08:22:17.563Z,1.34
2023-11-09T08:23:34.633Z,1.51
2023-11-09T08:24:51.587Z,1.2
2023-11-09T08:26:08.649Z,1.65
2023-11-09T08:27:25.636Z,1.4
2023-11-09T08:28:42.772Z,1.27
2023-11-09T08:29:59.807Z,1.08
2023-11-09T08:31:16.642Z,0.86
2023-11-09T08:32:33.610Z,1.44
2023-11-09T08:33:50.601Z,1.34
2023-11-09T08:35:07.674Z,1.29
2023-11-09T08:36:24.572Z,1.06
2023-11-09T08:37:41.601Z,1.6
2023-11-09T08:38:58.706Z,1.28
2023-11-09T08:40:15.857Z,1.03
2023-11-09T08:41:32.917Z,2.03
2023-11-09T08:42:49.624Z,1.97
2023-11-09T08:44:06.611Z,2.01
2023-11-09T08:45:23.613Z,1.73
2023-11-09T08:46:40.751Z,1.24
2023-11-09T08:47:57.670Z,1.83
2023-11-09T08:49:14.726Z,2.12
2023-11-09T08:50:31.641Z,1.7
2023-11-09T08:51:48.702Z,1.89
2023-11-09T08:53:05.897Z,1.4
2023-11-09T08:54:22.618Z,1.7
2023-11-09T08:55:39.700Z,1.02
2023-11-09T08:56:56.695Z,0.69
2023-11-09T08:58:13.671Z,1.37
2023-11-09T08:59:32.274Z,1.94
2023-11-09T09:00:47.572Z,1.56
2023-11-09T09:02:04.702Z,1.09
2023-11-09T09:03:21.674Z,1.49
2023-11-09T09:04:38.764Z,1.84
2023-11-09T09:05:55.669Z,1.39
2023-11-09T09:07:12.736Z,2.05
2023-11-09T09:08:29.618Z,1.62
2023-11-09T09:09:47.143Z,1.73
2023-11-09T09:11:05.934Z,1.36
2023-11-09T09:12:20.744Z,1.58
2023-11-09T09:13:38.711Z,1.71
2023-11-09T09:14:55.686Z,2.25
2023-11-09T09:16:12.702Z,1.86
2023-11-09T09:17:29.861Z,2.05
2023-11-09T09:18:47.257Z,2
2023-11-09T09:20:04.820Z,2.09
2023-11-09T09:21:21.657Z,1.87
2023-11-09T09:22:38.759Z,1.7
2023-11-09T09:23:55.672Z,1.41
2023-11-09T09:25:12.912Z,1.67
2023-11-09T09:26:29.669Z,2.77
2023-11-09T09:27:46.759Z,1.82
2023-11-09T09:29:04.110Z,2.1
2023-11-09T09:30:21.173Z,1.7
2023-11-09T09:31:38.273Z,1.48
2023-11-09T09:32:55.776Z,2.29
2023-11-09T09:34:12.899Z,1.58
2023-11-09T09:35:32.648Z,1.92
2023-11-09T09:36:46.772Z,1.96
2023-11-09T09:38:05.041Z,1.83
2023-11-09T09:39:20.729Z,1.74
2023-11-09T09:40:43.977Z,2.28
2023-11-09T09:41:54.908Z,2.35
2023-11-09T09:43:11.721Z,2.02
2023-11-09T09:44:28.853Z,1.35
2023-11-09T09:45:45.696Z,2.43
2023-11-09T09:47:02.826Z,1.74
2023-11-09T09:48:19.764Z,1.84
2023-11-09T09:49:36.760Z,2.21
2023-11-09T09:50:53.824Z,1.63
2023-11-09T09:52:10.735Z,1.84
2023-11-09T09:53:27.723Z,2.67
2023-11-09T09:54:44.732Z,1.62
2023-11-09T09:56:01.847Z,1.67
2023-11-09T09:57:18.694Z,1.18
2023-11-09T09:58:35.879Z,1.51
2023-11-09T09:59:52.850Z,1.29
2023-11-09T10:01:09.693Z,1.19
2023-11-09T10:02:26.846Z,2.13
2023-11-09T10:03:43.817Z,1.59
2023-11-09T10:05:00.964Z,1.81
2023-11-09T10:06:17.730Z,1.29
2023-11-09T10:07:35.137Z,2.61
2023-11-09T10:08:52.128Z,2.07
2023-11-09T10:10:08.985Z,1.57
2023-11-09T10:11:25.728Z,1.67
2023-11-09T10:12:42.786Z,1.58
2023-11-09T10:13:59.811Z,2.07
2023-11-09T10:15:16.848Z,1.89
2023-11-09T10:16:33.974Z,1.91
2023-11-09T10:17:50.898Z,2.34
2023-11-09T10:19:07.772Z,1.72
2023-11-09T10:20:24.959Z,2.16
2023-11-09T10:21:42.140Z,2.01
2023-11-09T10:22:58.821Z,1.75
2023-11-09T10:24:21.286Z,1.61
2023-11-09T10:25:37.949Z,2.45
2023-11-09T10:26:55.015Z,2.25
2023-11-09T10:28:11.822Z,1.75
2023-11-09T10:29:29.092Z,1.71
2023-11-09T10:30:46.414Z,1.83
2023-11-09T10:32:05.015Z,1.89
2023-11-09T10:33:21.859Z,2.08
2023-11-09T10:34:38.887Z,1.83
2023-11-09T10:35:55.733Z,2.32
2023-11-09T10:37:12.746Z,2.41
2023-11-09T10:38:29.827Z,2.37
2023-11-09T10:39:46.842Z,2.7
2023-11-09T10:41:10.235Z,1.98
2023-11-09T10:42:20.933Z,2.1
2023-11-09T10:43:37.777Z,1.58
2023-11-09T10:44:55.510Z,2.6
2023-11-09T10:46:11.857Z,3.24
2023-11-09T10:47:28.829Z,1.64
2023-11-09T10:48:46.058Z,1.51
2023-11-09T10:50:04.680Z,1.84
2023-11-09T10:51:19.861Z,2.95
2023-11-09T10:52:36.925Z,1.86
2023-11-09T10:53:53.843Z,2.04
2023-11-09T10:55:11.200Z,1.55
2023-11-09T10:56:27.784Z,1.76
2023-11-09T10:57:44.989Z,2.22
2023-11-09T10:59:01.880Z,1.88
2023-11-09T11:00:18.996Z,1.73
2023-11-09T11:01:35.832Z,1.66
2023-11-09T11:02:52.896Z,2.12
2023-11-09T11:04:10.035Z,2.11
2023-11-09T11:05:27.803Z,1.89
2023-11-09T11:06:45.029Z,2.2
2023-11-09T11:08:01.960Z,3.07
2023-11-09T11:09:18.865Z,2.11
2023-11-09T11:10:35.954Z,1.96
2023-11-09T11:11:53.179Z,2.17
2023-11-09T11:13:09.896Z,2.67
2023-11-09T11:14:26.860Z,3.11
2023-11-09T11:15:43.908Z,2.46
2023-11-09T11:17:00.904Z,2.15
2023-11-09T11:18:18.054Z,2.73
2023-11-09T11:19:35.048Z,1.83
2023-11-09T11:20:52.533Z,1.74
2023-11-09T11:22:08.847Z,1.84
2023-11-09T11:23:26.085Z,2.21
2023-11-09T11:24:42.900Z,1.84
2023-11-09T11:26:02.281Z,2.67
2023-11-09T11:27:20.738Z,1.82
2023-11-09T11:28:34.877Z,1.9
2023-11-09T11:29:51.921Z,2.59
2023-11-09T11:31:08.958Z,2.72
2023-11-09T11:32:25.991Z,2.82
2023-11-09T11:33:43.074Z,2.03
2023-11-09T11:35:00.370Z,2.17
2023-11-09T11:36:16.973Z,1.83
2023-11-09T11:37:33.970Z,1.94
2023-11-09T11:38:52.258Z,2
2023-11-09T11:40:08.015Z,1.37
2023-11-09T11:41:25.027Z,2.41
2023-11-09T11:42:42.124Z,1.82
2023-11-09T11:44:02.089Z,2.58
2023-11-09T11:45:18.931Z,2.02
2023-11-09T11:46:35.912Z,1.84
2023-11-09T11:47:53.174Z,2.3
2023-11-09T11:49:10.078Z,2
2023-11-09T11:50:27.038Z,3.05
2023-11-09T11:51:43.850Z,1.96
2023-11-09T11:53:00.932Z,2.37
2023-11-09T11:54:18.620Z,2.8
2023-11-09T11:55:37.313Z,2.07
2023-11-09T11:56:53.458Z,3.07
2023-11-09T11:58:10.032Z,1.65
2023-11-09T11:59:27.037Z,2.08
2023-11-09T12:00:43.991Z,1.48
2023-11-09T12:02:00.958Z,1.6
2023-11-09T12:03:17.977Z,1.4
2023-11-09T12:04:35.193Z,2.68
2023-11-09T12:05:52.158Z,2.02
2023-11-09T12:07:08.955Z,1.57
2023-11-09T12:08:25.917Z,1.57
2023-11-09T12:09:43.498Z,2.21
2023-11-09T12:11:01.023Z,2.93
2023-11-09T12:12:18.207Z,3.08
2023-11-09T12:13:35.059Z,3.14
2023-11-09T12:14:52.200Z,2.61
2023-11-09T12:16:09.271Z,2.99
2023-11-09T12:17:26.045Z,3.15
2023-11-09T12:18:43.046Z,2.67
2023-11-09T12:20:00.068Z,2.19
2023-11-09T12:21:17.025Z,2.56
2023-11-09T12:22:34.116Z,3.43
2023-11-09T12:23:51.136Z,2.33
2023-11-09T12:25:07.946Z,2.15
2023-11-09T12:26:24.937Z,2.59
2023-11-09T12:27:42.027Z,2.43
2023-11-09T12:28:59.303Z,2.04
2023-11-09T12:30:15.956Z,1.99
2023-11-09T12:31:32.973Z,2.07
2023-11-09T12:32:50.092Z,2.16
2023-11-09T12:34:07.242Z,2.51
2023-11-09T12:35:24.070Z,2.48
2023-11-09T12:36:41.300Z,2.91
2023-11-09T12:37:58.167Z,1.72
2023-11-09T12:39:15.056Z,1.54
2023-11-09T12:40:31.989Z,2.48
2023-11-09T12:41:49.100Z,1.98
2023-11-09T12:43:06.243Z,2.4
2023-11-09T12:44:22.961Z,2.02
2023-11-09T12:45:40.184Z,2.02
2023-11-09T12:46:57.001Z,2.19
2023-11-09T12:48:16.751Z,1.2
2023-11-09T12:49:31.239Z,1.45
2023-11-09T12:50:48.041Z,1.62
2023-11-09T12:52:05.082Z,1.72
2023-11-09T12:53:22.047Z,1.96
2023-11-09T12:54:40.696Z,1.72
2023-11-09T12:55:56.032Z,1.66
2023-11-09T12:57:13.012Z,1.81
2023-11-09T12:58:30.060Z,2.43
2023-11-09T12:59:46.987Z,1.77
2023-11-09T13:01:04.085Z,1.76
2023-11-09T13:02:21.018Z,2.11
2023-11-09T13:03:38.077Z,1.69
2023-11-09T13:04:55.113Z,1.88
2023-11-09T13:06:11.983Z,1.81
2023-11-09T13:07:29.112Z,1.75
2023-11-09T13:08:46.098Z,1.8
2023-11-09T13:10:03.745Z,1.66
2023-11-09T13:11:21.094Z,1.26
2023-11-09T13:12:38.245Z,1.16
2023-11-09T13:13:55.141Z,1.92
2023-11-09T13:15:12.136Z,1.82
2023-11-09T13:16:29.286Z,2.48
2023-11-09T13:17:46.036Z,1.74
2023-11-09T13:19:12.774Z,1.35
2023-11-09T13:20:20.207Z,1.7
2023-11-09T13:21:37.132Z,1.62
2023-11-09T13:22:54.134Z,1.67
2023-11-09T13:24:11.178Z,1.78
2023-11-09T13:25:28.050Z,2.11
2023-11-09T13:26:45.051Z,1.28
2023-11-09T13:28:02.029Z,1.82
2023-11-09T13:29:19.202Z,2.17
2023-11-09T13:30:36.311Z,2.72
2023-11-09T13:31:53.103Z,2.23
2023-11-09T13:33:11.114Z,2.08
2023-11-09T13:34:28.343Z,1.46
2023-11-09T13:35:45.835Z,1.56
2023-11-09T13:37:03.115Z,1.44
2023-11-09T13:38:20.168Z,1.13
2023-11-09T13:39:37.172Z,1.24
2023-11-09T13:40:54.213Z,1.44
2023-11-09T13:42:11.319Z,0.9
2023-11-09T13:43:28.115Z,1.77
2023-11-09T13:44:45.137Z,1.68
2023-11-09T13:46:02.561Z,1.65
2023-11-09T13:47:19.125Z,1.43
2023-11-09T13:48:36.900Z,2.38
2023-11-09T13:49:54.160Z,2.05
2023-11-09T13:51:11.116Z,2.26
2023-11-09T13:52:28.171Z,2.11
2023-11-09T13:53:45.184Z,1.83
2023-11-09T13:55:02.656Z,1.77
2023-11-09T13:56:21.359Z,2.16
2023-11-09T13:57:40.060Z,2.13
2023-11-09T13:59:00.429Z,2.42
2023-11-09T14:00:16.009Z,1.67
2023-11-09T14:01:33.535Z,1.79
2023-11-09T14:02:51.106Z,2.42
2023-11-09T14:04:08.384Z,1.48
2023-11-09T14:05:25.603Z,1.8
2023-11-09T14:06:42.285Z,1.83
2023-11-09T14:07:59.398Z,3.04
2023-11-09T14:09:16.601Z,1.72
2023-11-09T14:10:33.140Z,1.42
2023-11-09T14:11:50.156Z,2.5
2023-11-09T14:13:07.418Z,2.94
2023-11-09T14:14:24.069Z,1.95
2023-11-09T14:15:41.171Z,2.92
2023-11-09T14:16:58.180Z,2.15
2023-11-09T14:18:15.410Z,2.22
2023-11-09T14:19:32.118Z,3.78
2023-11-09T14:20:49.201Z,3.22
2023-11-09T14:22:06.114Z,2.78
2023-11-09T14:23:23.337Z,2.34
2023-11-09T14:24:40.232Z,2.57
2023-11-09T14:25:57.174Z,2.38
2023-11-09T14:27:14.541Z,3.31
2023-11-09T14:28:31.209Z,3.36
2023-11-09T14:29:48.208Z,2.57
2023-11-09T14:31:05.580Z,3.08
2023-11-09T14:32:22.420Z,2.28
2023-11-09T14:33:39.237Z,3.14
2023-11-09T14:34:56.646Z,3.57
2023-11-09T14:36:13.268Z,2.23
2023-11-09T14:37:30.321Z,3.45
2023-11-09T14:38:47.304Z,2.87
2023-11-09T14:40:04.500Z,2.3
2023-11-09T14:41:21.172Z,2.2
2023-11-09T14:42:38.394Z,2.86
2023-11-09T14:43:55.210Z,2.47
2023-11-09T14:45:12.309Z,2.05
2023-11-09T14:46:29.209Z,2.19
2023-11-09T14:47:46.392Z,2.24
2023-11-09T14:49:03.210Z,2.17
2023-11-09T14:50:20.860Z,1.84
2023-11-09T14:51:37.480Z,1.95
2023-11-09T14:52:54.207Z,1.95
2023-11-09T14:54:11.389Z,2.55
2023-11-09T14:55:28.283Z,2.32
2023-11-09T14:56:45.261Z,2.68
2023-11-09T14:58:02.512Z,1.5
2023-11-09T14:59:19.207Z,1.86
2023-11-09T15:00:36.509Z,3.01
2023-11-09T15:01:53.356Z,1.81
2023-11-09T15:03:10.291Z,1.48
2023-11-09T15:04:27.269Z,1.4
2023-11-09T15:05:44.513Z,1.71
2023-11-09T15:07:01.791Z,2.03
2023-11-09T15:08:19.188Z,1.35
2023-11-09T15:09:36.351Z,1.91
2023-11-09T15:10:53.222Z,2.23
2023-11-09T15:12:10.290Z,2.48
2023-11-09T15:13:27.388Z,2.09
2023-11-09T15:14:44.280Z,2.13
2023-11-09T15:16:01.710Z,2.9
2023-11-09T15:17:19.708Z,2.27
2023-11-09T15:18:36.686Z,1.91
2023-11-09T15:19:53.490Z,2.03
2023-11-09T15:21:10.172Z,2.13
2023-11-09T15:22:27.341Z,1.6
2023-11-09T15:23:44.410Z,2.29
2023-11-09T15:25:01.233Z,1.58
2023-11-09T15:26:18.199Z,1.84
2023-11-09T15:27:35.515Z,1.62
2023-11-09T15:28:52.930Z,2.41
2023-11-09T15:30:09.268Z,1.13
2023-11-09T15:31:26.250Z,1.89
2023-11-09T15:32:43.313Z,1.65
2023-11-09T15:34:00.572Z,1.66
2023-11-09T15:35:17.576Z,1.48
2023-11-09T15:36:34.656Z,1.73
2023-11-09T15:37:52.312Z,1.77
2023-11-09T15:39:09.515Z,2.12
2023-11-09T15:40:40.715Z,1.61
2023-11-09T15:41:43.378Z,2.43
2023-11-09T15:43:00.279Z,1.33
2023-11-09T15:44:17.646Z,1.21
2023-11-09T15:45:34.313Z,1.67
2023-11-09T15:46:51.282Z,1.35
2023-11-09T15:48:08.376Z,1.65
2023-11-09T15:49:25.308Z,1.67
2023-11-09T15:50:42.285Z,1.49
2023-11-09T15:51:59.279Z,1.42
2023-11-09T15:53:16.301Z,1.58
2023-11-09T15:54:33.392Z,1.67
2023-11-09T15:55:50.247Z,1.57
2023-11-09T15:57:07.231Z,2.07
2023-11-09T15:58:24.788Z,1.59
2023-11-09T15:59:42.425Z,1.72
2023-11-09T16:00:59.229Z,2.45
2023-11-09T16:02:16.342Z,2.3
2023-11-09T16:03:33.335Z,1.49
2023-11-09T16:04:50.370Z,1.67
2023-11-09T16:06:07.258Z,1.6
2023-11-09T16:07:24.265Z,1.5
2023-11-09T16:08:41.435Z,2.26
2023-11-09T16:10:03.228Z,1.85
2023-11-09T16:11:15.323Z,1.3
2023-11-09T16:12:32.316Z,1.42
2023-11-09T16:13:49.402Z,1.39
2023-11-09T16:15:06.503Z,1.18
2023-11-09T16:16:23.418Z,1.43
2023-11-09T16:17:40.358Z,1.45
2023-11-09T16:18:57.369Z,1.31
2023-11-09T16:20:14.287Z,1.38
2023-11-09T16:21:31.456Z,1.27
2023-11-09T16:22:49.107Z,1.44
2023-11-09T16:24:06.533Z,0.98
2023-11-09T16:25:23.326Z,1.38
2023-11-09T16:26:40.331Z,1.28
2023-11-09T16:27:57.429Z,1.46
2023-11-09T16:29:14.379Z,1.25
2023-11-09T16:30:31.514Z,1.46
2023-11-09T16:31:48.426Z,1.68
2023-11-09T16:33:05.522Z,1.65
2023-11-09T16:34:22.368Z,1.8
2023-11-09T16:35:39.709Z,1.79
2023-11-09T16:36:56.533Z,1.62
2023-11-09T16:38:13.387Z,1.87
2023-11-09T16:39:30.358Z,1.4
2023-11-09T16:40:47.494Z,1.89
2023-11-09T16:42:04.465Z,1.51
2023-11-09T16:43:21.385Z,1.54
2023-11-09T16:44:38.441Z,1.71
2023-11-09T16:45:55.366Z,1.96
2023-11-09T16:47:12.331Z,1.78
2023-11-09T16:48:29.507Z,1.5
2023-11-09T16:49:46.359Z,1.22
2023-11-09T16:51:03.682Z,1.41
2023-11-09T16:52:20.373Z,0.94
2023-11-09T16:53:37.484Z,1.3
2023-11-09T16:54:54.434Z,1.44
2023-11-09T16:56:11.358Z,1.58
2023-11-09T16:57:28.332Z,1.61
2023-11-09T16:58:45.404Z,1.83
2023-11-09T17:00:02.502Z,1.65
2023-11-09T17:01:19.300Z,1.88
2023-11-09T17:02:36.676Z,2.07
2023-11-09T17:03:53.584Z,1.79
2023-11-09T17:05:10.417Z,1.94
2023-11-09T17:06:27.480Z,2.09
2023-11-09T17:07:45.072Z,1.72
2023-11-09T17:09:01.477Z,1.89
2023-11-09T17:10:18.420Z,1.83
2023-11-09T17:11:35.408Z,1.83
2023-11-09T17:12:52.361Z,1.81
2023-11-09T17:14:09.381Z,1.7
2023-11-09T17:15:26.478Z,1.32
2023-11-09T17:16:43.466Z,1.52
2023-11-09T17:18:00.466Z,1.58
2023-11-09T17:19:17.383Z,1.49
2023-11-09T17:20:34.386Z,1.34
2023-11-09T17:21:51.438Z,1.19
2023-11-09T17:23:09.126Z,0.98
2023-11-09T17:24:29.385Z,1.13
2023-11-09T17:25:46.553Z,1.54
2023-11-09T17:27:03.536Z,1.4